createdAt,value
2018-11-13T00:00:29.216Z,10.28
2018-11-13T00:02:59.145Z,10.23
2018-11-13T00:05:28.909Z,10.28
2018-11-13T00:07:58.993Z,10.31
2018-11-13T00:10:29.074Z,10.35
2018-11-13T00:12:58.867Z,10.24
2018-11-13T00:15:28.659Z,10.29
2018-11-13T00:17:58.500Z,10.16
2018-11-13T00:20:28.578Z,10.10
2018-11-13T00:22:58.272Z,10.12
2018-11-13T00:25:27.920Z,10.08
2018-11-13T00:27:57.572Z,10.04
2018-11-13T00:30:27.307Z,9.96
2018-11-13T00:32:56.806Z,9.91
2018-11-13T00:35:26.496Z,9.94
2018-11-13T00:37:56.157Z,10.08
2018-11-13T00:40:25.955Z,10.10
2018-11-13T00:42:55.755Z,10.11
2018-11-13T00:45:25.339Z,10.08
2018-11-13T00:47:54.986Z,10.13
2018-11-13T00:50:24.474Z,10.13
2018-11-13T00:52:54.392Z,10.10
2018-11-13T00:55:24.167Z,10.06
2018-11-13T00:57:54.409Z,9.87
2018-11-13T01:00:24.029Z,9.99
2018-11-13T01:02:53.716Z,9.97
2018-11-13T01:05:23.665Z,9.95
2018-11-13T01:07:53.327Z,9.86
2018-11-13T01:10:23.179Z,9.86
2018-11-13T01:12:52.787Z,9.87
2018-11-13T01:15:22.520Z,9.92
2018-11-13T01:17:52.324Z,9.64
2018-11-13T01:20:22.723Z,9.52
2018-11-13T01:22:52.167Z,9.53
2018-11-13T01:25:22.180Z,9.63
2018-11-13T01:27:52.360Z,9.53
2018-11-13T01:30:21.923Z,9.47
2018-11-13T01:32:51.634Z,9.32
2018-11-13T01:35:21.218Z,9.23
2018-11-13T01:37:51.871Z,9.22
2018-11-13T01:40:22.293Z,9.28
2018-11-13T01:42:52.218Z,9.40
2018-11-13T01:45:21.805Z,9.53
2018-11-13T01:47:51.238Z,9.52
2018-11-13T01:50:20.873Z,9.58
2018-11-13T01:52:50.358Z,9.58
2018-11-13T01:55:20.312Z,9.32
2018-11-13T01:57:49.954Z,8.90
2018-11-13T02:00:23.777Z,9.26
2018-11-13T02:02:54.627Z,8.88
2018-11-13T02:05:25.529Z,8.99
2018-11-13T02:07:55.851Z,9.14
2018-11-13T02:10:25.744Z,9.15
2018-11-13T02:12:55.435Z,9.89
2018-11-13T02:15:25.042Z,9.38
2018-11-13T02:17:54.798Z,9.32
2018-11-13T02:20:24.593Z,9.18
2018-11-13T02:22:54.409Z,9.14
2018-11-13T02:25:24.055Z,9.03
2018-11-13T02:27:54.044Z,9.05
2018-11-13T02:30:24.226Z,9.37
2018-11-13T02:32:53.831Z,9.30
2018-11-13T02:35:23.562Z,9.18
2018-11-13T02:37:53.419Z,9.21
2018-11-13T02:40:23.288Z,9.22
2018-11-13T02:42:52.789Z,9.43
2018-11-13T02:45:22.084Z,9.39
2018-11-13T02:47:51.589Z,9.56
2018-11-13T02:50:21.967Z,9.50
2018-11-13T02:52:51.773Z,9.19
2018-11-13T02:55:21.751Z,9.20
2018-11-13T02:57:51.480Z,9.34
2018-11-13T03:00:22.318Z,9.26
2018-11-13T03:02:52.200Z,9.34
2018-11-13T03:05:22.615Z,9.45
2018-11-13T03:07:52.229Z,9.91
2018-11-13T03:10:21.987Z,9.75
2018-11-13T03:12:51.860Z,9.53
2018-11-13T03:15:21.972Z,9.58
2018-11-13T03:17:51.647Z,9.54
2018-11-13T03:20:21.657Z,9.34
2018-11-13T03:22:51.346Z,9.58
2018-11-13T03:25:22.421Z,9.18
2018-11-13T03:27:52.452Z,9.08
2018-11-13T03:30:24.259Z,8.84
2018-11-13T03:32:54.432Z,8.60
2018-11-13T03:35:24.071Z,8.38
2018-11-13T03:37:53.812Z,8.24
2018-11-13T03:40:23.371Z,8.19
2018-11-13T03:42:52.864Z,8.21
2018-11-13T03:45:22.633Z,8.25
2018-11-13T03:47:52.186Z,8.53
2018-11-13T03:50:22.821Z,8.33
2018-11-13T03:52:52.580Z,8.54
2018-11-13T03:55:22.348Z,8.74
2018-11-13T03:57:52.342Z,8.66
2018-11-13T04:00:23.181Z,8.70
2018-11-13T04:02:53.060Z,8.83
2018-11-13T04:05:22.867Z,8.67
2018-11-13T04:07:54.672Z,8.63
2018-11-13T04:10:25.160Z,8.81
2018-11-13T04:12:54.636Z,8.84
2018-11-13T04:15:25.423Z,9.05
2018-11-13T04:17:55.259Z,8.84
2018-11-13T04:20:25.133Z,8.96
2018-11-13T04:22:54.733Z,8.95
2018-11-13T04:25:24.609Z,8.94
2018-11-13T04:27:54.234Z,9.00
2018-11-13T04:30:24.227Z,9.05
2018-11-13T04:32:54.006Z,9.06
2018-11-13T04:35:23.569Z,9.00
2018-11-13T04:37:53.576Z,8.97
2018-11-13T04:40:23.283Z,9.04
2018-11-13T04:42:53.894Z,9.31
2018-11-13T04:45:24.921Z,9.19
2018-11-13T04:47:55.884Z,8.99
2018-11-13T04:50:25.556Z,8.95
2018-11-13T04:52:55.257Z,8.81
2018-11-13T04:55:24.863Z,8.85
2018-11-13T04:57:54.431Z,8.91
2018-11-13T05:00:24.878Z,8.78
2018-11-13T05:02:54.845Z,8.89
2018-11-13T05:05:24.557Z,8.77
2018-11-13T05:07:55.181Z,8.74
2018-11-13T05:10:25.641Z,8.66
2018-11-13T05:12:55.421Z,8.56
2018-11-13T05:15:25.014Z,8.60
2018-11-13T05:17:54.874Z,8.43
2018-11-13T05:20:24.589Z,8.56
2018-11-13T05:22:54.979Z,8.54
2018-11-13T05:25:25.032Z,8.57
2018-11-13T05:27:54.680Z,8.95
2018-11-13T05:30:24.539Z,9.05
2018-11-13T05:32:54.664Z,9.06
2018-11-13T05:35:24.860Z,9.02
2018-11-13T05:37:54.718Z,9.30
2018-11-13T05:40:25.406Z,9.28
2018-11-13T05:42:57.260Z,9.12
2018-11-13T05:45:28.189Z,9.11
2018-11-13T05:47:59.469Z,9.14
2018-11-13T05:50:28.981Z,9.15
2018-11-13T05:52:58.329Z,9.36
2018-11-13T05:55:27.512Z,9.51
2018-11-13T05:57:57.405Z,9.70
2018-11-13T06:00:30.959Z,9.66
2018-11-13T06:03:00.881Z,9.87
2018-11-13T06:05:30.610Z,9.86
2018-11-13T06:08:00.245Z,9.86
2018-11-13T06:10:29.593Z,9.72
2018-11-13T06:12:59.069Z,9.89
2018-11-13T06:15:28.716Z,10.02
2018-11-13T06:17:59.028Z,9.93
2018-11-13T06:20:28.714Z,10.09
2018-11-13T06:22:58.416Z,9.96
2018-11-13T06:25:27.901Z,9.97
2018-11-13T06:27:57.540Z,9.69
2018-11-13T06:30:28.176Z,9.69
2018-11-13T06:32:58.489Z,9.62
2018-11-13T06:35:28.112Z,9.81
2018-11-13T06:40:34.657Z,9.86
2018-11-13T06:43:04.572Z,9.90
2018-11-13T06:45:35.300Z,9.64
2018-11-13T06:48:04.667Z,9.99
2018-11-13T06:50:34.104Z,9.98
2018-11-13T06:53:03.711Z,9.92
2018-11-13T06:55:35.475Z,9.71
2018-11-13T06:58:05.185Z,9.91
2018-11-13T07:00:35.425Z,9.77
2018-11-13T07:03:05.204Z,10.07
2018-11-13T07:05:39.808Z,9.97
2018-11-13T07:08:08.937Z,10.20
2018-11-13T07:10:38.123Z,10.07
2018-11-13T07:13:07.409Z,10.13
2018-11-13T07:15:36.832Z,10.12
2018-11-13T07:18:06.190Z,9.97
2018-11-13T07:20:35.964Z,9.89
2018-11-13T07:23:05.067Z,10.06
2018-11-13T07:25:34.429Z,10.07
2018-11-13T07:28:04.586Z,10.75
2018-11-13T07:30:34.686Z,10.48
2018-11-13T07:33:04.888Z,10.41
2018-11-13T07:35:35.753Z,10.30
2018-11-13T07:38:04.889Z,10.30
2018-11-13T07:40:36.176Z,10.49
2018-11-13T07:43:06.157Z,10.88
2018-11-13T07:45:36.792Z,10.89
2018-11-13T07:48:11.492Z,11.22
2018-11-13T07:50:41.872Z,11.20
2018-11-13T07:53:11.369Z,11.27
2018-11-13T07:55:43.360Z,11.52
2018-11-13T07:58:13.758Z,11.86
2018-11-13T08:00:42.894Z,11.85
2018-11-13T08:03:29.266Z,12.18
2018-11-13T08:05:58.424Z,12.04
2018-11-13T08:08:27.569Z,11.74
2018-11-13T08:10:56.698Z,11.92
2018-11-13T08:13:26.127Z,11.88
2018-11-13T08:15:55.239Z,12.00
2018-11-13T08:18:24.689Z,12.12
2018-11-13T08:20:54.258Z,12.41
2018-11-13T08:23:23.618Z,12.96
2018-11-13T08:25:55.545Z,12.67
2018-11-13T08:28:24.839Z,12.99
2018-11-13T08:30:54.123Z,12.78
2018-11-13T08:33:23.244Z,12.39
2018-11-13T08:35:52.484Z,12.47
2018-11-13T08:38:21.582Z,12.35
2018-11-13T08:40:50.683Z,12.55
2018-11-13T08:43:19.926Z,12.55
2018-11-13T08:45:49.088Z,12.77
2018-11-13T08:48:18.248Z,12.96
2018-11-13T08:50:48.034Z,12.88
2018-11-13T08:53:17.745Z,13.11
2018-11-13T08:55:48.034Z,13.26
2018-11-13T08:58:18.319Z,13.44
2018-11-13T09:00:49.722Z,13.53
2018-11-13T09:03:19.610Z,13.58
2018-11-13T09:05:48.970Z,13.77
2018-11-13T09:08:18.311Z,13.89
2018-11-13T09:10:48.210Z,13.98
2018-11-13T09:13:17.707Z,14.12
2018-11-13T09:15:47.113Z,14.28
2018-11-13T09:18:17.032Z,14.21
2018-11-13T09:20:50.781Z,14.31
2018-11-13T09:23:22.203Z,14.47
2018-11-13T09:26:05.009Z,14.91
2018-11-13T09:28:39.871Z,14.68
2018-11-13T09:31:12.698Z,14.92
2018-11-13T09:33:43.967Z,15.24
2018-11-13T09:36:19.641Z,14.86
2018-11-13T09:38:51.733Z,14.96
2018-11-13T09:41:22.311Z,14.76
2018-11-13T09:44:05.933Z,14.73
2018-11-13T09:46:41.761Z,14.69
2018-11-13T09:49:14.126Z,15.02
2018-11-13T09:51:46.102Z,14.80
2018-11-13T09:54:19.927Z,14.93
2018-11-13T09:56:53.540Z,14.66
2018-11-13T09:59:34.335Z,14.60
2018-11-13T10:02:11.860Z,14.24
2018-11-13T10:04:48.143Z,14.60
2018-11-13T10:07:20.682Z,14.65
2018-11-13T10:09:55.487Z,15.46
2018-11-13T10:12:30.368Z,14.96
2018-11-13T10:15:03.311Z,15.60
2018-11-13T10:17:40.551Z,15.60
2018-11-13T10:20:14.784Z,15.75
2018-11-13T10:22:48.664Z,16.16
2018-11-13T10:25:22.448Z,16.12
2018-11-13T10:27:55.082Z,15.39
2018-11-13T10:30:25.418Z,15.41
2018-11-13T10:32:56.226Z,15.71
2018-11-13T10:35:28.729Z,15.98
2018-11-13T10:37:59.818Z,15.42
2018-11-13T10:40:30.976Z,15.77
2018-11-13T10:43:00.691Z,16.31
2018-11-13T10:45:30.844Z,15.39
2018-11-13T10:48:02.010Z,15.70
2018-11-13T10:50:33.317Z,15.44
2018-11-13T10:53:08.778Z,14.96
2018-11-13T10:55:45.622Z,15.26
2018-11-13T10:58:21.313Z,15.35
2018-11-13T11:00:58.404Z,14.69
2018-11-13T11:03:33.683Z,15.21
2018-11-13T11:06:04.110Z,14.61
2018-11-13T11:08:38.554Z,14.44
2018-11-13T11:11:09.107Z,14.55
2018-11-13T11:13:40.758Z,14.10
2018-11-13T11:16:12.474Z,14.02
2018-11-13T11:18:51.191Z,14.31
2018-11-13T11:21:20.630Z,14.56
2018-11-13T11:23:50.107Z,14.53
2018-11-13T11:26:21.313Z,14.49
2018-11-13T11:28:57.163Z,14.42
2018-11-13T11:31:30.066Z,14.76
2018-11-13T11:34:02.671Z,14.49
2018-11-13T11:36:33.310Z,14.68
2018-11-13T11:39:03.265Z,15.43
2018-11-13T11:41:33.481Z,15.06
2018-11-13T11:44:06.314Z,15.52
2018-11-13T11:46:36.004Z,15.75
2018-11-13T11:49:05.481Z,15.50
2018-11-13T11:51:36.729Z,14.92
2018-11-13T11:54:06.665Z,15.25
2018-11-13T11:56:36.362Z,15.45
2018-11-13T11:59:06.962Z,15.05
2018-11-13T12:01:37.489Z,15.39
2018-11-13T12:04:07.147Z,15.50
2018-11-13T12:06:36.618Z,15.33
2018-11-13T12:09:10.269Z,16.10
2018-11-13T12:11:40.935Z,16.81
2018-11-13T12:14:12.609Z,16.18
2018-11-13T12:16:48.911Z,16.51
2018-11-13T12:19:20.095Z,16.07
2018-11-13T12:21:49.577Z,15.15
2018-11-13T12:24:20.053Z,15.92
2018-11-13T12:26:56.153Z,15.08
2018-11-13T12:29:26.997Z,16.39
2018-11-13T12:32:03.898Z,15.88
2018-11-13T12:34:33.276Z,16.06
2018-11-13T12:37:02.706Z,15.06
2018-11-13T12:39:31.777Z,14.58
2018-11-13T12:42:01.396Z,14.35
2018-11-13T12:44:31.085Z,14.51
2018-11-13T12:47:00.151Z,14.23
2018-11-13T12:49:30.639Z,14.22
2018-11-13T12:52:05.008Z,14.93
2018-11-13T12:54:34.471Z,15.06
2018-11-13T12:57:05.281Z,15.74
2018-11-13T12:59:47.244Z,15.91
2018-11-13T13:02:23.704Z,15.38
2018-11-13T13:04:53.537Z,15.74
2018-11-13T13:07:23.217Z,16.36
2018-11-13T13:09:53.800Z,15.85
2018-11-13T13:12:23.520Z,15.28
2018-11-13T13:14:55.838Z,15.12
2018-11-13T13:17:25.699Z,15.27
2018-11-13T13:19:55.856Z,15.39
2018-11-13T13:22:27.207Z,15.50
2018-11-13T13:24:56.793Z,15.54
2018-11-13T13:27:26.509Z,15.61
2018-11-13T13:29:57.169Z,15.66
2018-11-13T13:32:31.241Z,15.50
2018-11-13T13:35:04.296Z,15.33
2018-11-13T13:37:34.806Z,14.96
2018-11-13T13:40:10.380Z,15.22
2018-11-13T13:42:40.597Z,15.94
2018-11-13T13:45:11.295Z,16.49
2018-11-13T13:47:42.439Z,16.62
2018-11-13T13:50:15.165Z,16.65
2018-11-13T13:52:45.891Z,16.84
2018-11-13T13:55:23.235Z,16.63
2018-11-13T13:58:02.157Z,16.37
2018-11-13T14:00:42.752Z,15.67
2018-11-13T14:03:18.606Z,16.51
2018-11-13T14:05:53.418Z,16.44
2018-11-13T14:08:24.128Z,16.96
2018-11-13T14:10:55.430Z,16.07
2018-11-13T14:13:27.571Z,16.10
2018-11-13T14:15:59.143Z,16.28
2018-11-13T14:18:31.784Z,16.59
2018-11-13T14:21:02.496Z,16.59
2018-11-13T14:23:36.492Z,16.00
2018-11-13T14:26:06.795Z,16.16
2018-11-13T14:28:36.802Z,15.60
2018-11-13T14:31:07.020Z,15.56
2018-11-13T14:33:36.151Z,14.91
2018-11-13T14:36:05.596Z,14.53
2018-11-13T14:38:34.809Z,14.00
2018-11-13T14:41:03.894Z,14.14
2018-11-13T14:43:33.137Z,13.87
2018-11-13T14:46:02.626Z,13.67
2018-11-13T14:48:31.937Z,13.54
2018-11-13T14:51:01.326Z,13.59
2018-11-13T14:53:30.717Z,13.33
2018-11-13T14:56:00.167Z,13.33
2018-11-13T14:58:29.429Z,13.14
2018-11-13T15:00:58.709Z,13.08
2018-11-13T15:03:28.419Z,12.95
2018-11-13T15:05:57.734Z,13.03
2018-11-13T15:08:27.042Z,12.97
2018-11-13T15:10:56.758Z,12.93
2018-11-13T15:13:27.303Z,12.88
2018-11-13T15:15:56.604Z,12.93
2018-11-13T15:18:25.863Z,12.87
2018-11-13T15:20:54.955Z,12.89
2018-11-13T15:23:24.189Z,12.90
2018-11-13T15:25:53.464Z,12.99
2018-11-13T15:28:22.719Z,12.94
2018-11-13T15:30:51.978Z,12.90
2018-11-13T15:33:22.980Z,12.92
2018-11-13T15:35:52.290Z,12.93
2018-11-13T15:38:21.440Z,12.99
2018-11-13T15:40:50.665Z,13.03
2018-11-13T15:43:19.877Z,13.07
2018-11-13T15:45:49.280Z,13.17
2018-11-13T15:48:18.506Z,13.32
2018-11-13T15:50:47.658Z,13.37
2018-11-13T15:53:16.806Z,13.34
2018-11-13T15:55:46.016Z,13.30
2018-11-13T15:58:15.743Z,13.13
2018-11-13T16:00:44.883Z,13.27
2018-11-13T16:03:19.078Z,13.42
2018-11-13T16:05:51.798Z,13.44
2018-11-13T16:08:21.703Z,13.39
2018-11-13T16:10:51.022Z,13.31
2018-11-13T16:13:20.568Z,13.28
2018-11-13T16:15:49.804Z,13.17
2018-11-13T16:18:20.814Z,13.10
2018-11-13T16:20:50.161Z,12.99
2018-11-13T16:23:19.469Z,13.02
2018-11-13T16:25:49.705Z,12.99
2018-11-13T16:28:22.151Z,13.04
2018-11-13T16:30:51.518Z,12.90
2018-11-13T16:33:20.573Z,12.82
2018-11-13T16:35:49.792Z,12.73
2018-11-13T16:38:19.207Z,12.72
2018-11-13T16:40:48.346Z,12.77
2018-11-13T16:43:17.533Z,12.60
2018-11-13T16:45:46.570Z,12.55
2018-11-13T16:48:15.828Z,12.41
2018-11-13T16:50:45.463Z,12.30
2018-11-13T16:53:14.660Z,12.29
2018-11-13T16:55:48.733Z,12.24
2018-11-13T16:58:17.872Z,12.23
2018-11-13T17:00:47.155Z,12.15
2018-11-13T17:03:16.432Z,12.16
2018-11-13T17:05:45.600Z,12.01
2018-11-13T17:08:14.543Z,11.92
2018-11-13T17:10:44.682Z,11.99
2018-11-13T17:13:13.825Z,11.87
2018-11-13T17:15:43.069Z,11.73
2018-11-13T17:18:13.728Z,11.71
2018-11-13T17:20:42.376Z,12.02
2018-11-13T17:23:11.554Z,11.86
2018-11-13T17:25:40.872Z,11.70
2018-11-13T17:28:10.202Z,11.85
2018-11-13T17:30:39.580Z,11.97
2018-11-13T17:33:09.897Z,12.08
2018-11-13T17:35:39.015Z,12.15
2018-11-13T17:38:08.252Z,12.13
2018-11-13T17:40:38.491Z,12.08
2018-11-13T17:43:08.509Z,11.97
2018-11-13T17:45:39.826Z,11.96
2018-11-13T17:48:10.073Z,11.94
2018-11-13T17:50:40.708Z,11.95
2018-11-13T17:53:10.700Z,12.00
2018-11-13T17:55:40.503Z,11.95
2018-11-13T17:58:11.472Z,11.89
2018-11-13T18:00:41.911Z,12.12
2018-11-13T18:03:12.619Z,11.83
2018-11-13T18:05:42.223Z,11.95
2018-11-13T18:08:12.093Z,11.85
2018-11-13T18:10:42.662Z,11.62
2018-11-13T18:13:11.755Z,11.58
2018-11-13T18:15:41.156Z,11.30
2018-11-13T18:18:10.648Z,11.03
2018-11-13T18:20:40.744Z,10.88
2018-11-13T18:23:10.264Z,10.71
2018-11-13T18:25:39.525Z,10.57
2018-11-13T18:28:08.799Z,10.48
2018-11-13T18:30:39.652Z,10.41
2018-11-13T18:33:09.642Z,10.38
2018-11-13T18:35:40.021Z,10.42
2018-11-13T18:38:10.854Z,10.41
2018-11-13T18:40:39.975Z,10.37
2018-11-13T18:43:09.104Z,10.39
2018-11-13T18:45:39.727Z,10.39
2018-11-13T18:48:09.897Z,10.45
2018-11-13T18:50:41.443Z,10.43
2018-11-13T18:53:10.566Z,10.46
2018-11-13T18:55:39.627Z,10.41
2018-11-13T18:58:08.839Z,10.43
2018-11-13T19:00:42.285Z,10.39
2018-11-13T19:03:13.183Z,10.36
2018-11-13T19:05:42.370Z,10.38
2018-11-13T19:08:11.390Z,10.37
2018-11-13T19:10:45.037Z,10.33
2018-11-13T19:13:17.386Z,10.36
2018-11-13T19:15:53.943Z,10.28
2018-11-13T19:18:23.172Z,10.30
2018-11-13T19:20:52.269Z,10.31
2018-11-13T19:23:27.810Z,10.31
2018-11-13T19:25:57.108Z,10.37
2018-11-13T19:28:29.212Z,10.46
2018-11-13T19:30:59.528Z,10.69
2018-11-13T19:33:28.598Z,10.74
2018-11-13T19:35:58.004Z,10.82
2018-11-13T19:38:27.034Z,10.80
2018-11-13T19:40:58.271Z,10.85
2018-11-13T19:43:29.148Z,10.94
2018-11-13T19:46:00.772Z,11.00
2018-11-13T19:48:31.274Z,10.96
2018-11-13T19:51:01.078Z,10.88
2018-11-13T19:53:30.308Z,11.06
2018-11-13T19:56:00.323Z,11.19
2018-11-13T19:58:30.759Z,11.11
2018-11-13T20:01:00.353Z,11.14
2018-11-13T20:03:29.680Z,11.20
2018-11-13T20:05:59.542Z,11.20
2018-11-13T20:08:28.504Z,11.25
2018-11-13T20:10:57.550Z,11.31
2018-11-13T20:13:26.619Z,11.18
2018-11-13T20:15:55.773Z,11.48
2018-11-13T20:18:24.930Z,11.56
2018-11-13T20:20:54.014Z,11.62
2018-11-13T20:23:23.136Z,11.67
2018-11-13T20:25:52.239Z,11.83
2018-11-13T20:28:21.233Z,12.08
2018-11-13T20:30:50.365Z,12.39
2018-11-13T20:33:19.483Z,12.61
2018-11-13T20:35:48.531Z,12.40
2018-11-13T20:38:17.545Z,12.12
2018-11-13T20:40:46.693Z,11.99
2018-11-13T20:43:15.879Z,11.95
2018-11-13T20:45:44.853Z,11.90
2018-11-13T20:48:13.947Z,12.19
2018-11-13T20:50:43.119Z,12.46
2018-11-13T20:53:12.142Z,12.42
2018-11-13T20:55:41.553Z,12.53
2018-11-13T20:58:10.638Z,12.09
2018-11-13T21:00:41.085Z,11.87
2018-11-13T21:03:11.050Z,11.79
2018-11-13T21:05:40.140Z,11.68
2018-11-13T21:08:09.236Z,11.69
2018-11-13T21:10:39.924Z,11.65
2018-11-13T21:13:09.794Z,11.86
2018-11-13T21:15:38.816Z,11.90
2018-11-13T21:18:07.955Z,12.10
2018-11-13T21:20:37.658Z,11.86
2018-11-13T21:23:11.116Z,11.63
2018-11-13T21:25:43.514Z,11.84
2018-11-13T21:28:18.964Z,11.73
2018-11-13T21:30:48.178Z,11.76
2018-11-13T21:33:17.230Z,11.91
2018-11-13T21:35:46.305Z,12.03
2018-11-13T21:38:15.320Z,12.12
2018-11-13T21:40:44.306Z,12.10
2018-11-13T21:43:13.416Z,11.95
2018-11-13T21:45:42.477Z,12.14
2018-11-13T21:48:12.425Z,12.02
2018-11-13T21:50:41.550Z,11.97
2018-11-13T21:53:10.639Z,11.99
2018-11-13T21:55:39.738Z,11.88
2018-11-13T21:58:08.763Z,11.96
2018-11-13T22:00:37.823Z,11.88
2018-11-13T22:03:08.869Z,11.91
2018-11-13T22:05:38.390Z,11.69
2018-11-13T22:08:07.572Z,11.66
2018-11-13T22:10:36.628Z,11.63
2018-11-13T22:13:05.793Z,11.76
2018-11-13T22:15:34.766Z,11.80
2018-11-13T22:18:03.769Z,11.86
2018-11-13T22:20:32.828Z,11.67
2018-11-13T22:23:02.241Z,11.82
2018-11-13T22:25:31.276Z,11.77
2018-11-13T22:28:00.617Z,11.80
2018-11-13T22:30:31.820Z,11.94
2018-11-13T22:33:00.847Z,11.98
2018-11-13T22:35:30.166Z,11.85
2018-11-13T22:37:59.197Z,11.94
2018-11-13T22:40:29.350Z,11.98
2018-11-13T22:42:59.349Z,11.77
2018-11-13T22:45:29.293Z,11.86
2018-11-13T22:47:58.634Z,11.89
2018-11-13T22:50:29.120Z,11.74
2018-11-13T22:52:58.294Z,11.62
2018-11-13T22:55:27.262Z,11.41
2018-11-13T22:57:57.325Z,11.49
2018-11-13T23:00:48.594Z,11.37
2018-11-13T23:03:18.497Z,11.42
2018-11-13T23:05:48.381Z,11.51
2018-11-13T23:08:18.792Z,11.54
2018-11-13T23:10:48.973Z,11.53
2018-11-13T23:13:18.599Z,11.53
2018-11-13T23:15:47.626Z,11.43
2018-11-13T23:18:16.701Z,11.49
2018-11-13T23:20:45.689Z,11.71
2018-11-13T23:23:14.733Z,11.80
2018-11-13T23:25:44.954Z,11.67
2018-11-13T23:28:14.003Z,11.64
2018-11-13T23:30:43.277Z,11.52
2018-11-13T23:33:12.333Z,11.62
2018-11-13T23:35:41.401Z,11.51
2018-11-13T23:38:10.448Z,11.42
2018-11-13T23:40:39.497Z,11.42
2018-11-13T23:43:08.553Z,11.44
2018-11-13T23:45:37.579Z,11.43
2018-11-13T23:48:07.424Z,11.48
2018-11-13T23:50:36.433Z,11.53
2018-11-13T23:53:05.645Z,11.51
2018-11-13T23:55:34.704Z,11.61
2018-11-13T23:58:03.777Z,11.64
